createdAt,value
2019-05-11T00:00:37.788Z,0.00
2019-05-11T00:01:37.783Z,0.00
2019-05-11T00:02:37.779Z,0.00
2019-05-11T00:03:37.777Z,0.00
2019-05-11T00:04:37.771Z,0.00
2019-05-11T00:05:37.765Z,0.00
2019-05-11T00:06:37.763Z,0.00
2019-05-11T00:07:37.756Z,0.00
2019-05-11T00:08:37.756Z,0.00
2019-05-11T00:09:37.747Z,0.00
2019-05-11T00:10:37.742Z,0.00
2019-05-11T00:11:37.740Z,0.00
2019-05-11T00:12:37.744Z,0.00
2019-05-11T00:13:37.730Z,0.00
2019-05-11T00:14:37.725Z,0.00
2019-05-11T00:15:37.725Z,0.00
2019-05-11T00:16:37.716Z,0.00
2019-05-11T00:17:37.711Z,0.00
2019-05-11T00:18:37.707Z,0.00
2019-05-11T00:19:37.702Z,0.00
2019-05-11T00:20:37.698Z,0.00
2019-05-11T00:21:37.694Z,0.00
2019-05-11T00:22:37.690Z,0.00
2019-05-11T00:23:37.690Z,0.00
2019-05-11T00:24:37.682Z,0.00
2019-05-11T00:25:37.675Z,0.00
2019-05-11T00:26:37.671Z,0.00
2019-05-11T00:27:37.665Z,0.00
2019-05-11T00:28:37.663Z,0.00
2019-05-11T00:29:37.657Z,0.00
2019-05-11T00:30:37.651Z,0.00
2019-05-11T00:31:37.648Z,0.00
2019-05-11T00:32:37.643Z,0.00
2019-05-11T00:33:37.639Z,0.00
2019-05-11T00:34:37.633Z,0.00
2019-05-11T00:35:37.631Z,0.00
2019-05-11T00:36:37.628Z,0.00
2019-05-11T00:37:37.620Z,0.00
2019-05-11T00:38:37.617Z,0.00
2019-05-11T00:39:37.612Z,0.00
2019-05-11T00:40:37.607Z,0.00
2019-05-11T00:41:37.604Z,0.00
2019-05-11T00:42:37.598Z,0.00
2019-05-11T00:43:37.592Z,0.00
2019-05-11T00:44:37.589Z,0.00
2019-05-11T00:45:37.584Z,0.00
2019-05-11T00:46:37.579Z,0.00
2019-05-11T00:47:37.573Z,0.00
2019-05-11T00:48:37.571Z,0.00
2019-05-11T00:49:37.566Z,0.00
2019-05-11T00:50:39.811Z,0.00
2019-05-11T00:51:37.556Z,0.00
2019-05-11T00:52:37.560Z,0.00
2019-05-11T00:53:37.547Z,0.00
2019-05-11T00:54:37.542Z,0.00
2019-05-11T00:55:37.537Z,0.00
2019-05-11T00:56:37.534Z,0.00
2019-05-11T00:57:37.528Z,0.00
2019-05-11T00:58:37.525Z,0.00
2019-05-11T00:59:37.519Z,0.00
2019-05-11T01:00:37.515Z,0.00
2019-05-11T01:01:37.509Z,0.00
2019-05-11T01:02:37.505Z,0.00
2019-05-11T01:03:37.502Z,0.00
2019-05-11T01:04:37.515Z,0.00
2019-05-11T01:05:37.495Z,0.00
2019-05-11T01:06:37.508Z,0.00
2019-05-11T01:07:37.484Z,0.00
2019-05-11T01:08:37.478Z,0.00
2019-05-11T01:09:37.490Z,0.00
2019-05-11T01:10:42.135Z,0.00
2019-05-11T01:11:37.464Z,0.00
2019-05-11T01:12:37.473Z,0.00
2019-05-11T01:13:37.453Z,0.00
2019-05-11T01:14:37.449Z,0.00
2019-05-11T01:15:37.448Z,0.00
2019-05-11T01:16:37.443Z,0.00
2019-05-11T01:17:37.436Z,0.00
2019-05-11T01:18:37.431Z,0.00
2019-05-11T01:19:37.429Z,0.00
2019-05-11T01:20:37.430Z,0.00
2019-05-11T01:21:37.417Z,0.00
2019-05-11T01:22:37.476Z,0.00
2019-05-11T01:23:37.408Z,0.00
2019-05-11T01:24:37.403Z,0.00
2019-05-11T01:25:37.398Z,0.00
2019-05-11T01:26:37.449Z,0.00
2019-05-11T01:27:37.389Z,0.00
2019-05-11T01:28:37.384Z,0.00
2019-05-11T01:29:37.378Z,0.00
2019-05-11T01:30:38.876Z,0.00
2019-05-11T01:31:37.371Z,0.00
2019-05-11T01:32:37.371Z,0.00
2019-05-11T01:33:37.360Z,0.00
2019-05-11T01:34:37.356Z,0.00
2019-05-11T01:35:37.353Z,0.00
2019-05-11T01:36:37.346Z,0.00
2019-05-11T01:37:37.341Z,0.00
2019-05-11T01:38:37.339Z,0.00
2019-05-11T01:40:56.356Z,0.00
2019-05-11T01:41:41.035Z,0.00
2019-05-11T01:42:37.319Z,0.00
2019-05-11T01:43:37.315Z,0.00
2019-05-11T01:44:37.309Z,0.00
2019-05-11T01:45:37.303Z,0.00
2019-05-11T01:46:37.299Z,0.00
2019-05-11T01:47:37.298Z,0.00
2019-05-11T01:48:37.294Z,0.00
2019-05-11T01:49:37.288Z,0.00
2019-05-11T01:50:37.288Z,0.00
2019-05-11T01:51:37.274Z,0.00
2019-05-11T01:52:37.272Z,0.00
2019-05-11T01:53:37.265Z,0.00
2019-05-11T01:54:37.261Z,0.00
2019-05-11T01:55:37.255Z,0.00
2019-05-11T01:56:37.255Z,0.00
2019-05-11T01:57:37.248Z,0.00
2019-05-11T01:58:37.244Z,0.00
2019-05-11T01:59:37.238Z,0.00
2019-05-11T02:00:37.235Z,0.00
2019-05-11T02:01:37.227Z,0.00
2019-05-11T02:02:37.224Z,0.00
2019-05-11T02:03:37.219Z,0.00
2019-05-11T02:04:37.224Z,0.00
2019-05-11T02:05:37.209Z,0.00
2019-05-11T02:06:37.203Z,0.00
2019-05-11T02:07:37.214Z,0.00
2019-05-11T02:08:37.194Z,0.00
2019-05-11T02:09:37.190Z,0.00
2019-05-11T02:10:37.184Z,0.00
2019-05-11T02:11:37.180Z,0.00
2019-05-11T02:12:37.176Z,0.00
2019-05-11T02:13:37.171Z,0.00
2019-05-11T02:14:37.165Z,0.00
2019-05-11T02:15:37.163Z,0.00
2019-05-11T02:16:37.157Z,0.00
2019-05-11T02:19:05.557Z,0.00
2019-05-11T02:20:05.954Z,0.00
2019-05-11T02:22:47.214Z,0.00
2019-05-11T02:23:47.214Z,0.00
2019-05-11T02:24:47.202Z,0.00
2019-05-11T02:25:47.198Z,0.00
2019-05-11T02:26:47.193Z,0.00
2019-05-11T02:27:47.189Z,0.00
2019-05-11T02:28:47.185Z,0.00
2019-05-11T02:29:47.177Z,0.00
2019-05-11T02:30:47.175Z,0.00
2019-05-11T02:31:47.169Z,0.00
2019-05-11T02:33:59.428Z,0.00
2019-05-11T02:34:59.888Z,0.00
2019-05-11T02:39:07.134Z,0.00
2019-05-11T02:40:07.129Z,0.00
2019-05-11T02:41:10.115Z,0.00
2019-05-11T02:44:03.812Z,0.00
2019-05-11T02:45:04.576Z,0.00
2019-05-11T02:46:04.820Z,0.00
2019-05-11T02:47:06.625Z,0.00
2019-05-11T02:48:03.787Z,0.00
2019-05-11T02:49:06.578Z,0.00
2019-05-11T02:50:03.824Z,0.00
2019-05-11T02:51:03.773Z,0.00
2019-05-11T02:52:03.767Z,0.00
2019-05-11T02:53:03.773Z,0.00
2019-05-11T02:54:03.765Z,0.00
2019-05-11T02:55:03.751Z,0.00
2019-05-11T02:56:03.769Z,0.00
2019-05-11T02:57:03.746Z,0.00
2019-05-11T02:58:03.735Z,0.00
2019-05-11T02:59:03.732Z,0.00
2019-05-11T03:00:03.723Z,0.00
2019-05-11T03:01:03.719Z,0.00
2019-05-11T03:02:03.714Z,0.00
2019-05-11T03:03:03.710Z,0.00
2019-05-11T03:04:03.708Z,0.00
2019-05-11T03:05:03.698Z,0.00
2019-05-11T03:06:03.697Z,0.00
2019-05-11T03:07:03.688Z,0.00
2019-05-11T03:08:03.692Z,0.00
2019-05-11T03:09:03.696Z,0.00
2019-05-11T03:10:03.670Z,0.00
2019-05-11T03:11:03.669Z,0.00
2019-05-11T03:12:03.666Z,0.00
2019-05-11T03:13:03.655Z,0.00
2019-05-11T03:14:03.802Z,0.00
2019-05-11T03:15:03.647Z,0.00
2019-05-11T03:16:03.640Z,0.00
2019-05-11T03:17:03.636Z,0.00
2019-05-11T03:18:03.631Z,0.00
2019-05-11T03:19:03.627Z,0.00
2019-05-11T03:20:03.618Z,0.00
2019-05-11T03:21:03.615Z,0.00
2019-05-11T03:22:03.609Z,0.00
2019-05-11T03:23:03.613Z,0.00
2019-05-11T03:24:03.637Z,0.00
2019-05-11T03:25:03.600Z,0.00
2019-05-11T03:26:03.699Z,0.00
2019-05-11T03:27:03.604Z,0.00
2019-05-11T03:28:03.579Z,0.00
2019-05-11T03:29:03.575Z,0.00
2019-05-11T03:30:03.574Z,0.00
2019-05-11T03:31:03.585Z,0.00
2019-05-11T03:32:03.558Z,0.00
2019-05-11T03:33:03.562Z,0.00
2019-05-11T03:34:03.550Z,0.00
2019-05-11T03:35:03.553Z,0.00
2019-05-11T03:36:03.536Z,0.00
2019-05-11T03:37:03.532Z,0.00
2019-05-11T03:38:03.528Z,0.00
2019-05-11T03:39:03.522Z,0.00
2019-05-11T03:40:03.519Z,0.00
2019-05-11T03:41:03.510Z,0.00
2019-05-11T03:42:13.895Z,0.00
2019-05-11T03:43:03.504Z,0.00
2019-05-11T03:44:03.496Z,0.00
2019-05-11T03:45:03.490Z,0.00
2019-05-11T03:46:03.489Z,0.00
2019-05-11T03:47:03.495Z,0.00
2019-05-11T03:48:03.481Z,0.00
2019-05-11T03:49:03.476Z,0.00
2019-05-11T03:50:03.465Z,0.00
2019-05-11T03:51:03.462Z,0.00
2019-05-11T03:52:03.459Z,5.63
2019-05-11T03:53:03.457Z,5.63
2019-05-11T03:54:03.445Z,5.63
2019-05-11T03:55:03.448Z,5.63
2019-05-11T03:56:03.445Z,5.63
2019-05-11T03:57:03.432Z,5.63
2019-05-11T03:58:03.430Z,5.63
2019-05-11T03:59:03.420Z,5.63
2019-05-11T04:00:03.413Z,5.63
2019-05-11T04:01:03.408Z,5.63
2019-05-11T04:02:03.410Z,5.63
2019-05-11T04:03:03.404Z,5.63
2019-05-11T04:04:03.397Z,11.25
2019-05-11T04:05:03.388Z,11.25
2019-05-11T04:06:03.403Z,11.25
2019-05-11T04:07:03.380Z,11.25
2019-05-11T04:08:03.373Z,11.25
2019-05-11T04:09:03.368Z,11.25
2019-05-11T04:10:03.365Z,16.88
2019-05-11T04:11:03.359Z,16.88
2019-05-11T04:12:03.357Z,16.88
2019-05-11T04:13:03.348Z,16.88
2019-05-11T04:14:03.354Z,16.88
2019-05-11T04:15:03.343Z,16.88
2019-05-11T04:16:03.338Z,16.88
2019-05-11T04:17:03.329Z,16.88
2019-05-11T04:18:03.328Z,16.88
2019-05-11T04:19:03.317Z,16.88
2019-05-11T04:20:03.317Z,16.88
2019-05-11T04:21:03.307Z,16.88
2019-05-11T04:22:03.306Z,22.50
2019-05-11T04:23:03.295Z,22.50
2019-05-11T04:24:03.291Z,22.50
2019-05-11T04:25:03.285Z,22.50
2019-05-11T04:26:03.285Z,28.13
2019-05-11T04:27:03.275Z,28.13
2019-05-11T04:28:03.276Z,33.75
2019-05-11T04:29:03.317Z,39.38
2019-05-11T04:30:03.313Z,39.38
2019-05-11T04:31:03.341Z,45.00
2019-05-11T04:32:03.250Z,50.63
2019-05-11T04:33:03.267Z,50.63
2019-05-11T04:34:03.240Z,50.63
2019-05-11T04:35:03.251Z,50.63
2019-05-11T04:36:03.229Z,50.63
2019-05-11T04:37:03.224Z,56.25
2019-05-11T04:38:03.218Z,56.25
2019-05-11T04:39:03.215Z,56.25
2019-05-11T04:40:03.213Z,56.25
2019-05-11T04:41:03.343Z,56.25
2019-05-11T04:42:03.201Z,56.25
2019-05-11T04:43:03.196Z,56.25
2019-05-11T04:44:03.191Z,56.25
2019-05-11T04:45:03.183Z,56.25
2019-05-11T04:46:03.180Z,56.25
2019-05-11T04:47:03.178Z,56.25
2019-05-11T04:48:03.167Z,56.25
2019-05-11T04:49:03.163Z,56.25
2019-05-11T04:50:03.161Z,61.88
2019-05-11T04:51:03.159Z,61.88
2019-05-11T04:52:03.147Z,61.88
2019-05-11T04:53:03.144Z,61.88
2019-05-11T04:54:03.145Z,61.88
2019-05-11T04:55:03.133Z,61.88
2019-05-11T04:56:03.127Z,61.88
2019-05-11T04:57:03.121Z,67.50
2019-05-11T04:58:03.117Z,67.50
2019-05-11T04:59:03.112Z,67.50
2019-05-11T05:00:03.157Z,67.50
2019-05-11T05:01:03.101Z,67.50
2019-05-11T05:02:03.098Z,73.13
2019-05-11T05:03:03.090Z,73.13
2019-05-11T05:04:13.244Z,78.75
2019-05-11T05:05:03.081Z,78.75
2019-05-11T05:06:20.882Z,78.75
2019-05-11T05:07:08.566Z,84.38
2019-05-11T05:08:09.724Z,84.38
2019-05-11T05:09:03.566Z,84.38
2019-05-11T05:10:03.056Z,90.00
2019-05-11T05:11:03.050Z,95.63
2019-05-11T05:12:03.045Z,95.63
2019-05-11T05:13:10.659Z,95.63
2019-05-11T05:14:08.124Z,101.25
2019-05-11T05:15:03.029Z,101.25
2019-05-11T05:16:03.024Z,106.88
2019-05-11T05:17:03.019Z,112.50
2019-05-11T05:18:03.064Z,118.13
2019-05-11T05:19:03.009Z,123.75
2019-05-11T05:20:03.009Z,129.38
2019-05-11T05:21:02.999Z,129.38
2019-05-11T05:22:02.996Z,129.38
2019-05-11T05:23:02.988Z,135.00
2019-05-11T05:24:02.988Z,140.63
2019-05-11T05:25:02.979Z,146.25
2019-05-11T05:26:02.976Z,146.25
2019-05-11T05:27:02.976Z,146.25
2019-05-11T05:28:02.962Z,140.63
2019-05-11T05:29:02.961Z,140.63
2019-05-11T05:30:03.021Z,140.63
2019-05-11T05:31:02.951Z,140.63
2019-05-11T05:32:02.953Z,146.25
2019-05-11T05:33:02.939Z,146.25
2019-05-11T05:34:02.935Z,151.88
2019-05-11T05:35:02.931Z,168.75
2019-05-11T05:36:02.923Z,168.75
2019-05-11T05:37:02.924Z,185.63
2019-05-11T05:38:02.915Z,196.88
2019-05-11T05:39:02.909Z,202.50
2019-05-11T05:40:02.904Z,213.75
2019-05-11T05:41:02.906Z,219.38
2019-05-11T05:42:02.894Z,219.38
2019-05-11T05:43:02.891Z,219.38
2019-05-11T05:44:02.888Z,202.50
2019-05-11T05:45:02.881Z,196.88
2019-05-11T05:46:02.879Z,191.25
2019-05-11T05:47:02.873Z,180.00
2019-05-11T05:48:02.877Z,174.38
2019-05-11T05:49:02.865Z,180.00
2019-05-11T05:50:02.861Z,174.38
2019-05-11T05:51:02.854Z,174.38
2019-05-11T05:52:02.853Z,174.38
2019-05-11T05:53:02.845Z,174.38
2019-05-11T05:54:02.838Z,174.38
2019-05-11T05:55:02.835Z,168.75
2019-05-11T05:56:02.829Z,168.75
2019-05-11T05:57:02.825Z,168.75
2019-05-11T05:58:02.824Z,168.75
2019-05-11T05:59:02.819Z,168.75
2019-05-11T06:00:02.813Z,168.75
2019-05-11T06:01:02.807Z,174.38
2019-05-11T06:02:02.805Z,174.38
2019-05-11T06:03:02.805Z,174.38
2019-05-11T06:04:02.793Z,174.38
2019-05-11T06:05:02.790Z,174.38
2019-05-11T06:06:02.785Z,180.00
2019-05-11T06:07:02.780Z,185.63
2019-05-11T06:08:02.778Z,191.25
2019-05-11T06:09:02.772Z,202.50
2019-05-11T06:10:02.770Z,208.13
2019-05-11T06:11:02.765Z,213.75
2019-05-11T06:12:02.761Z,219.38
2019-05-11T06:13:02.754Z,219.38
2019-05-11T06:14:02.751Z,213.75
2019-05-11T06:15:02.745Z,213.75
2019-05-11T06:16:02.740Z,208.13
2019-05-11T06:17:02.735Z,202.50
2019-05-11T06:18:02.735Z,202.50
2019-05-11T06:19:02.728Z,202.50
2019-05-11T06:20:03.601Z,202.50
2019-05-11T06:21:02.718Z,213.75
2019-05-11T06:22:02.728Z,247.50
2019-05-11T06:23:02.711Z,286.88
2019-05-11T06:24:06.812Z,315.00
2019-05-11T06:25:02.703Z,331.88
2019-05-11T06:26:02.697Z,337.50
2019-05-11T06:27:02.693Z,382.50
2019-05-11T06:28:02.686Z,388.13
2019-05-11T06:29:02.682Z,388.13
2019-05-11T06:30:02.679Z,388.13
2019-05-11T06:31:02.685Z,405.00
2019-05-11T06:32:02.669Z,416.25
2019-05-11T06:33:02.666Z,438.75
2019-05-11T06:34:02.666Z,461.25
2019-05-11T06:35:02.830Z,495.00
2019-05-11T06:36:02.651Z,511.88
2019-05-11T06:37:02.647Z,523.13
2019-05-11T06:38:02.644Z,523.13
2019-05-11T06:39:02.640Z,517.50
2019-05-11T06:40:02.633Z,517.50
2019-05-11T06:41:02.633Z,483.75
2019-05-11T06:42:02.630Z,433.13
2019-05-11T06:43:02.622Z,393.75
2019-05-11T06:44:02.617Z,354.38
2019-05-11T06:45:02.615Z,320.63
2019-05-11T06:46:02.619Z,309.38
2019-05-11T06:47:02.608Z,303.75
2019-05-11T06:48:02.603Z,298.13
2019-05-11T06:49:02.598Z,292.50
2019-05-11T06:50:02.595Z,275.63
2019-05-11T06:51:02.594Z,241.88
2019-05-11T06:52:02.587Z,219.38
2019-05-11T06:53:02.583Z,225.00
2019-05-11T06:54:02.578Z,264.38
2019-05-11T06:55:02.575Z,270.00
2019-05-11T06:56:02.571Z,270.00
2019-05-11T06:57:02.570Z,281.25
2019-05-11T06:58:02.565Z,286.88
2019-05-11T06:59:02.559Z,286.88
2019-05-11T07:00:02.554Z,286.88
2019-05-11T07:01:02.552Z,292.50
2019-05-11T07:02:02.548Z,315.00
2019-05-11T07:03:02.548Z,365.63
2019-05-11T07:04:02.538Z,461.25
2019-05-11T07:05:02.538Z,540.00
2019-05-11T07:06:02.531Z,545.63
2019-05-11T07:07:02.528Z,528.75
2019-05-11T07:08:02.524Z,534.38
2019-05-11T07:09:02.519Z,506.25
2019-05-11T07:10:02.517Z,472.50
2019-05-11T07:11:02.513Z,472.50
2019-05-11T07:12:02.581Z,478.13
2019-05-11T07:13:02.505Z,461.25
2019-05-11T07:14:19.352Z,416.25
2019-05-11T07:15:02.503Z,371.25
2019-05-11T07:16:02.559Z,382.50
2019-05-11T07:17:02.492Z,388.13
2019-05-11T07:18:02.491Z,427.50
2019-05-11T07:19:02.487Z,478.13
2019-05-11T07:20:02.480Z,495.00
2019-05-11T07:21:02.477Z,506.25
2019-05-11T07:22:02.476Z,500.63
2019-05-11T07:23:02.473Z,511.88
2019-05-11T07:24:02.469Z,517.50
2019-05-11T07:25:02.464Z,534.38
2019-05-11T07:26:02.468Z,573.75
2019-05-11T07:27:02.459Z,652.50
2019-05-11T07:28:02.486Z,736.88
2019-05-11T07:29:02.455Z,838.13
2019-05-11T07:30:02.450Z,945.00
2019-05-11T07:31:02.447Z,1006.88
2019-05-11T07:32:09.898Z,1018.13
2019-05-11T07:33:02.440Z,990.00
2019-05-11T07:34:02.438Z,860.63
2019-05-11T07:35:02.437Z,826.88
2019-05-11T07:36:02.431Z,900.00
2019-05-11T07:37:02.428Z,843.75
2019-05-11T07:38:02.429Z,787.50
2019-05-11T07:39:02.425Z,781.88
2019-05-11T07:40:02.426Z,838.13
2019-05-11T07:41:02.424Z,855.00
2019-05-11T07:42:02.417Z,815.63
2019-05-11T07:43:05.961Z,821.25
2019-05-11T07:44:02.413Z,838.13
2019-05-11T07:45:02.411Z,860.63
2019-05-11T07:46:02.409Z,1029.38
2019-05-11T07:47:02.407Z,1096.88
2019-05-11T07:48:02.404Z,1096.88
2019-05-11T07:49:02.403Z,1231.88
2019-05-11T07:50:02.400Z,1428.75
2019-05-11T07:51:02.398Z,1698.75
2019-05-11T07:52:02.396Z,1608.75
2019-05-11T07:53:02.397Z,1603.13
2019-05-11T07:54:02.393Z,1428.75
2019-05-11T07:55:02.445Z,1468.13
2019-05-11T07:56:02.393Z,1282.50
2019-05-11T07:57:02.391Z,1513.13
2019-05-11T07:58:02.390Z,1468.13
2019-05-11T07:59:02.389Z,1591.88
2019-05-11T08:00:02.391Z,1850.63
2019-05-11T08:01:02.388Z,2182.50
2019-05-11T08:02:02.386Z,1631.25
2019-05-11T08:03:02.388Z,1378.13
2019-05-11T08:04:02.386Z,1591.88
2019-05-11T08:05:02.391Z,1895.63
2019-05-11T08:06:02.919Z,2424.38
2019-05-11T08:07:02.388Z,1906.88
2019-05-11T08:08:02.387Z,1524.38
2019-05-11T08:09:02.388Z,1237.50
2019-05-11T08:10:02.390Z,1254.38
2019-05-11T08:11:02.392Z,1215.00
2019-05-11T08:12:02.392Z,1715.63
2019-05-11T08:13:02.397Z,2716.88
2019-05-11T08:14:02.405Z,2109.38
2019-05-11T08:15:09.020Z,1518.75
2019-05-11T08:16:02.399Z,1783.13
2019-05-11T08:17:02.399Z,1732.50
2019-05-11T08:18:02.401Z,1372.50
2019-05-11T08:19:02.409Z,1001.25
2019-05-11T08:20:02.403Z,1040.63
2019-05-11T08:21:02.405Z,855.00
2019-05-11T08:22:02.409Z,843.75
2019-05-11T08:23:02.409Z,720.00
2019-05-11T08:24:02.411Z,646.88
2019-05-11T08:25:02.412Z,579.38
2019-05-11T08:26:02.415Z,343.13
2019-05-11T08:27:02.417Z,264.38
2019-05-11T08:28:02.417Z,241.88
2019-05-11T08:29:02.419Z,258.75
2019-05-11T08:30:02.419Z,258.75
2019-05-11T08:31:02.423Z,264.38
2019-05-11T08:32:02.420Z,275.63
2019-05-11T08:33:02.422Z,292.50
2019-05-11T08:34:02.425Z,286.88
2019-05-11T08:35:02.424Z,292.50
2019-05-11T08:36:02.426Z,320.63
2019-05-11T08:37:02.427Z,354.38
2019-05-11T08:38:02.424Z,382.50
2019-05-11T08:39:02.424Z,421.88
2019-05-11T08:40:02.423Z,472.50
2019-05-11T08:41:02.425Z,455.63
2019-05-11T08:42:03.340Z,483.75
2019-05-11T08:43:02.426Z,641.25
2019-05-11T08:44:02.422Z,922.50
2019-05-11T08:45:16.101Z,528.75
2019-05-11T08:46:02.423Z,995.63
2019-05-11T08:47:02.423Z,624.38
2019-05-11T08:48:02.420Z,753.75
2019-05-11T08:49:02.421Z,1029.38
2019-05-11T08:50:02.418Z,798.75
2019-05-11T08:51:02.418Z,624.38
2019-05-11T08:52:02.418Z,562.50
2019-05-11T08:53:02.417Z,720.00
2019-05-11T08:54:02.414Z,978.75
2019-05-11T08:55:02.414Z,1068.75
2019-05-11T08:56:02.416Z,973.13
2019-05-11T08:57:02.412Z,916.88
2019-05-11T08:58:02.413Z,1018.13
2019-05-11T08:59:02.411Z,843.75
2019-05-11T09:00:02.414Z,1158.75
2019-05-11T09:01:02.409Z,1378.13
2019-05-11T09:02:02.409Z,1231.88
2019-05-11T09:03:02.409Z,1254.38
2019-05-11T09:04:02.408Z,984.38
2019-05-11T09:05:02.409Z,1108.13
2019-05-11T09:06:02.409Z,950.63
2019-05-11T09:07:02.407Z,1226.25
2019-05-11T09:08:02.405Z,1293.75
2019-05-11T09:09:02.405Z,1130.63
2019-05-11T09:10:02.411Z,1136.25
2019-05-11T09:11:02.407Z,871.88
2019-05-11T09:12:02.407Z,933.75
2019-05-11T09:13:02.406Z,928.13
2019-05-11T09:14:02.408Z,601.88
2019-05-11T09:15:02.408Z,596.25
2019-05-11T09:16:02.407Z,630.00
2019-05-11T09:17:02.406Z,765.00
2019-05-11T09:18:02.406Z,658.13
2019-05-11T09:19:02.407Z,905.63
2019-05-11T09:20:02.406Z,1209.38
2019-05-11T09:21:02.406Z,916.88
2019-05-11T09:22:03.292Z,900.00
2019-05-11T09:23:02.407Z,821.25
2019-05-11T09:24:02.405Z,933.75
2019-05-11T09:25:02.407Z,1181.25
2019-05-11T09:26:02.408Z,860.63
2019-05-11T09:27:02.407Z,798.75
2019-05-11T09:28:02.406Z,1096.88
2019-05-11T09:29:02.406Z,1524.38
2019-05-11T09:30:02.408Z,1783.13
2019-05-11T09:31:02.408Z,1726.88
2019-05-11T09:32:02.407Z,1496.25
2019-05-11T09:33:02.407Z,1006.88
2019-05-11T09:34:02.424Z,1158.75
2019-05-11T09:35:02.408Z,984.38
2019-05-11T09:36:02.409Z,1001.25
2019-05-11T09:37:02.410Z,1215.00
2019-05-11T09:38:02.410Z,714.38
2019-05-11T09:39:02.412Z,1063.13
2019-05-11T09:40:02.417Z,1479.38
2019-05-11T09:41:02.412Z,1636.88
2019-05-11T09:42:02.414Z,2458.13
2019-05-11T09:43:02.414Z,2295.00
2019-05-11T09:44:02.420Z,2497.50
2019-05-11T09:45:02.415Z,2542.50
2019-05-11T09:46:02.420Z,2311.88
2019-05-11T09:47:02.725Z,2075.63
2019-05-11T09:48:02.420Z,1940.63
2019-05-11T09:49:02.423Z,1749.38
2019-05-11T09:50:02.425Z,2131.88
2019-05-11T09:51:02.430Z,1636.88
2019-05-11T09:52:02.428Z,2053.13
2019-05-11T09:53:02.433Z,2295.00
2019-05-11T09:54:02.434Z,2497.50
2019-05-11T09:55:02.437Z,2379.38
2019-05-11T09:56:02.438Z,2430.00
2019-05-11T09:57:02.443Z,2413.13
2019-05-11T09:58:02.448Z,2435.63
2019-05-11T09:59:02.453Z,2497.50
2019-05-11T10:00:02.454Z,2638.13
2019-05-11T10:01:02.461Z,3037.50
2019-05-11T10:02:02.460Z,2919.38
2019-05-11T10:03:02.464Z,1940.63
2019-05-11T10:04:02.467Z,3211.88
2019-05-11T10:05:02.471Z,3099.38
2019-05-11T10:06:02.476Z,3060.00
2019-05-11T10:07:02.480Z,1704.38
2019-05-11T10:08:02.483Z,1209.38
2019-05-11T10:09:02.489Z,1080.00
2019-05-11T10:10:02.494Z,1085.63
2019-05-11T10:11:02.500Z,1164.38
2019-05-11T10:12:02.500Z,1141.88
2019-05-11T10:13:02.507Z,1096.88
2019-05-11T10:14:02.512Z,1046.25
2019-05-11T10:15:02.519Z,1023.75
2019-05-11T10:16:07.069Z,956.25
2019-05-11T10:17:02.730Z,815.63
2019-05-11T10:18:02.530Z,928.13
2019-05-11T10:19:02.538Z,871.88
2019-05-11T10:20:02.540Z,781.88
2019-05-11T10:21:02.543Z,826.88
2019-05-11T10:22:02.549Z,781.88
2019-05-11T10:23:02.552Z,843.75
2019-05-11T10:24:02.557Z,888.75
2019-05-11T10:25:02.562Z,1057.50
2019-05-11T10:26:02.565Z,1181.25
2019-05-11T10:27:02.570Z,1192.50
2019-05-11T10:28:02.578Z,1209.38
2019-05-11T10:29:02.577Z,1209.38
2019-05-11T10:30:02.581Z,1226.25
2019-05-11T10:31:02.585Z,1153.13
2019-05-11T10:32:02.590Z,1147.50
2019-05-11T10:33:02.594Z,1158.75
2019-05-11T10:34:02.598Z,826.88
2019-05-11T10:35:02.603Z,967.50
2019-05-11T10:36:03.207Z,1147.50
2019-05-11T10:37:02.612Z,1153.13
2019-05-11T10:38:02.616Z,1254.38
2019-05-11T10:39:02.644Z,1321.88
2019-05-11T10:40:02.625Z,1333.13
2019-05-11T10:41:02.629Z,1203.75
2019-05-11T10:42:02.633Z,1175.63
2019-05-11T10:43:03.002Z,1102.50
2019-05-11T10:44:02.642Z,1085.63
2019-05-11T10:45:02.873Z,1068.75
2019-05-11T10:46:15.991Z,956.25
2019-05-11T10:47:02.656Z,911.25
2019-05-11T10:48:02.863Z,928.13
2019-05-11T10:49:03.027Z,978.75
2019-05-11T10:50:02.730Z,939.38
2019-05-11T10:51:02.681Z,888.75
2019-05-11T10:52:02.678Z,916.88
2019-05-11T10:53:02.686Z,815.63
2019-05-11T10:54:02.690Z,950.63
2019-05-11T10:55:02.813Z,950.63
2019-05-11T10:56:02.722Z,978.75
2019-05-11T10:57:02.905Z,945.00
2019-05-11T10:58:02.707Z,973.13
2019-05-11T10:59:02.711Z,731.25
2019-05-11T11:00:03.080Z,641.25
2019-05-11T11:01:02.718Z,669.38
2019-05-11T11:02:02.723Z,652.50
2019-05-11T11:03:02.728Z,686.25
2019-05-11T11:04:02.731Z,736.88
2019-05-11T11:05:02.735Z,691.88
2019-05-11T11:06:02.737Z,781.88
2019-05-11T11:07:02.745Z,821.25
2019-05-11T11:08:02.742Z,826.88
2019-05-11T11:09:02.748Z,888.75
2019-05-11T11:10:02.750Z,736.88
2019-05-11T11:11:02.754Z,866.25
2019-05-11T11:12:02.758Z,759.38
2019-05-11T11:13:02.758Z,826.88
2019-05-11T11:14:02.964Z,843.75
2019-05-11T11:15:02.764Z,939.38
2019-05-11T11:16:03.131Z,832.50
2019-05-11T11:17:02.770Z,877.50
2019-05-11T11:18:02.773Z,877.50
2019-05-11T11:19:02.775Z,945.00
2019-05-11T11:20:02.777Z,849.38
2019-05-11T11:21:46.105Z,770.63
2019-05-11T11:22:48.175Z,736.88
2019-05-11T11:23:48.002Z,748.13
2019-05-11T11:24:48.019Z,838.13
2019-05-11T11:26:48.413Z,663.75
2019-05-11T11:27:48.422Z,708.75
2019-05-11T11:28:47.813Z,669.38
2019-05-11T11:29:47.536Z,680.63
2019-05-11T11:30:47.983Z,601.88
2019-05-11T11:31:47.996Z,590.63
2019-05-11T11:32:48.097Z,545.63
2019-05-11T11:33:48.630Z,534.38
2019-05-11T11:34:48.353Z,562.50
2019-05-11T11:35:47.691Z,630.00
2019-05-11T11:36:48.065Z,646.88
2019-05-11T11:37:47.809Z,596.25
2019-05-11T11:38:47.885Z,551.25
2019-05-11T11:39:47.651Z,568.13
2019-05-11T11:40:48.209Z,624.38
2019-05-11T11:41:48.377Z,585.00
2019-05-11T11:42:47.821Z,585.00
2019-05-11T11:43:48.110Z,601.88
2019-05-11T11:44:48.230Z,607.50
2019-05-11T11:45:48.278Z,607.50
2019-05-11T11:46:54.247Z,601.88
2019-05-11T11:47:46.149Z,590.63
2019-05-11T11:48:48.550Z,579.38
2019-05-11T11:49:47.557Z,573.75
2019-05-11T11:50:48.005Z,545.63
2019-05-11T11:51:47.860Z,534.38
2019-05-11T11:52:47.681Z,534.38
2019-05-11T11:53:47.732Z,534.38
2019-05-11T11:54:47.858Z,528.75
2019-05-11T11:55:48.031Z,517.50
2019-05-11T11:56:48.339Z,500.63
2019-05-11T11:57:48.464Z,506.25
2019-05-11T11:58:48.529Z,483.75
2019-05-11T11:59:48.136Z,489.38
2019-05-11T12:00:48.063Z,500.63
2019-05-11T12:01:48.515Z,511.88
2019-05-11T12:02:48.560Z,511.88
2019-05-11T12:03:48.470Z,472.50
2019-05-11T12:04:46.161Z,450.00
2019-05-11T12:05:47.763Z,427.50
2019-05-11T12:06:46.162Z,472.50
2019-05-11T12:07:46.160Z,495.00
2019-05-11T12:08:46.163Z,489.38
2019-05-11T12:09:48.319Z,466.88
2019-05-11T12:10:48.296Z,433.13
2019-05-11T12:11:48.412Z,399.38
2019-05-11T12:12:47.555Z,393.75
2019-05-11T12:13:47.532Z,410.63
2019-05-11T12:14:47.937Z,455.63
2019-05-11T12:15:48.018Z,500.63
2019-05-11T12:16:47.935Z,489.38
2019-05-11T12:17:48.094Z,489.38
2019-05-11T12:18:48.395Z,489.38
2019-05-11T12:19:47.806Z,500.63
2019-05-11T12:20:47.896Z,489.38
2019-05-11T12:21:48.225Z,506.25
2019-05-11T12:22:47.654Z,540.00
2019-05-11T12:23:48.298Z,540.00
2019-05-11T12:24:48.227Z,506.25
2019-05-11T12:25:48.453Z,483.75
2019-05-11T12:26:48.056Z,495.00
2019-05-11T12:27:48.724Z,444.38
2019-05-11T12:28:48.661Z,393.75
2019-05-11T12:29:47.719Z,410.63
2019-05-11T12:30:48.148Z,489.38
2019-05-11T12:31:48.319Z,461.25
2019-05-11T12:32:48.522Z,455.63
2019-05-11T12:33:48.229Z,556.88
2019-05-11T12:34:48.076Z,511.88
2019-05-11T12:35:48.019Z,523.13
2019-05-11T12:36:47.931Z,551.25
2019-05-11T12:37:48.272Z,540.00
2019-05-11T12:38:48.561Z,466.88
2019-05-11T12:39:47.879Z,483.75
2019-05-11T12:40:47.726Z,517.50
2019-05-11T12:41:47.957Z,601.88
2019-05-11T12:42:48.665Z,534.38
2019-05-11T12:43:46.162Z,506.25
2019-05-11T12:44:48.027Z,562.50
2019-05-11T12:45:48.088Z,562.50
2019-05-11T12:46:48.584Z,551.25
2019-05-11T12:47:47.932Z,523.13
2019-05-11T12:48:48.247Z,517.50
2019-05-11T12:49:48.185Z,489.38
2019-05-11T12:50:48.262Z,489.38
2019-05-11T12:51:46.163Z,500.63
2019-05-11T12:52:47.678Z,534.38
2019-05-11T12:53:47.618Z,562.50